sensor_id;sensor_type;location;lat;lon;timestamp;P1;durP1;ratioP1;P2;durP2;ratioP2
27213;SDS011;14723;55.814;37.460;2023-03-29T00:01:18;11.25;;;6.63;;
27213;SDS011;14723;55.814;37.460;2023-03-29T00:04:39;12.60;;;7.00;;
27213;SDS011;14723;55.814;37.460;2023-03-29T00:07:47;10.93;;;6.57;;
27213;SDS011;14723;55.814;37.460;2023-03-29T00:14:01;12.35;;;6.45;;
27213;SDS011;14723;55.814;37.460;2023-03-29T00:17:06;9.65;;;5.95;;
27213;SDS011;14723;55.814;37.460;2023-03-29T00:20:14;12.50;;;6.40;;
27213;SDS011;14723;55.814;37.460;2023-03-29T00:23:20;10.70;;;6.32;;
27213;SDS011;14723;55.814;37.460;2023-03-29T00:26:26;10.02;;;6.13;;
27213;SDS011;14723;55.814;37.460;2023-03-29T00:29:32;10.38;;;6.07;;
27213;SDS011;14723;55.814;37.460;2023-03-29T00:32:38;10.68;;;6.05;;
27213;SDS011;14723;55.814;37.460;2023-03-29T00:35:47;9.07;;;6.03;;
27213;SDS011;14723;55.814;37.460;2023-03-29T00:38:54;8.95;;;5.97;;
27213;SDS011;14723;55.814;37.460;2023-03-29T00:42:00;9.70;;;6.53;;
27213;SDS011;14723;55.814;37.460;2023-03-29T00:45:12;10.50;;;5.75;;
27213;SDS011;14723;55.814;37.460;2023-03-29T00:48:20;8.23;;;5.55;;
27213;SDS011;14723;55.814;37.460;2023-03-29T00:51:30;7.53;;;5.57;;
27213;SDS011;14723;55.814;37.460;2023-03-29T00:54:36;9.30;;;5.60;;
27213;SDS011;14723;55.814;37.460;2023-03-29T00:57:42;9.95;;;6.30;;
27213;SDS011;14723;55.814;37.460;2023-03-29T01:00:49;9.48;;;6.45;;
27213;SDS011;14723;55.814;37.460;2023-03-29T01:03:58;9.40;;;6.28;;
27213;SDS011;14723;55.814;37.460;2023-03-29T01:07:08;13.63;;;6.45;;
27213;SDS011;14723;55.814;37.460;2023-03-29T01:10:16;9.48;;;5.97;;
27213;SDS011;14723;55.814;37.460;2023-03-29T01:13:24;10.10;;;6.57;;
27213;SDS011;14723;55.814;37.460;2023-03-29T01:16:31;9.82;;;6.30;;
27213;SDS011;14723;55.814;37.460;2023-03-29T01:19:41;10.65;;;6.55;;
27213;SDS011;14723;55.814;37.460;2023-03-29T01:22:56;9.65;;;6.00;;
27213;SDS011;14723;55.814;37.460;2023-03-29T01:26:08;12.30;;;6.72;;
27213;SDS011;14723;55.814;37.460;2023-03-29T01:29:20;9.73;;;5.57;;
27213;SDS011;14723;55.814;37.460;2023-03-29T01:32:29;9.25;;;5.25;;
27213;SDS011;14723;55.814;37.460;2023-03-29T01:35:38;10.27;;;5.55;;
27213;SDS011;14723;55.814;37.460;2023-03-29T01:38:46;8.52;;;5.30;;
27213;SDS011;14723;55.814;37.460;2023-03-29T01:41:56;7.65;;;5.30;;
27213;SDS011;14723;55.814;37.460;2023-03-29T01:45:10;6.57;;;4.43;;
27213;SDS011;14723;55.814;37.460;2023-03-29T01:48:18;7.32;;;5.03;;
27213;SDS011;14723;55.814;37.460;2023-03-29T01:51:28;9.57;;;5.30;;
27213;SDS011;14723;55.814;37.460;2023-03-29T01:54:34;7.20;;;5.30;;
27213;SDS011;14723;55.814;37.460;2023-03-29T01:57:41;8.70;;;4.97;;
27213;SDS011;14723;55.814;37.460;2023-03-29T02:00:54;9.98;;;5.20;;
27213;SDS011;14723;55.814;37.460;2023-03-29T02:04:02;7.28;;;5.32;;
27213;SDS011;14723;55.814;37.460;2023-03-29T02:07:08;8.35;;;5.05;;
27213;SDS011;14723;55.814;37.460;2023-03-29T02:10:14;9.45;;;5.30;;
27213;SDS011;14723;55.814;37.460;2023-03-29T02:13:21;8.38;;;5.22;;
27213;SDS011;14723;55.814;37.460;2023-03-29T02:16:33;8.23;;;5.15;;
27213;SDS011;14723;55.814;37.460;2023-03-29T02:19:38;9.40;;;5.10;;
27213;SDS011;14723;55.814;37.460;2023-03-29T02:22:48;10.68;;;6.10;;
27213;SDS011;14723;55.814;37.460;2023-03-29T02:25:55;8.38;;;5.47;;
27213;SDS011;14723;55.814;37.460;2023-03-29T02:29:01;8.93;;;5.45;;
27213;SDS011;14723;55.814;37.460;2023-03-29T02:32:11;10.32;;;6.07;;
27213;SDS011;14723;55.814;37.460;2023-03-29T02:35:20;7.28;;;5.28;;
27213;SDS011;14723;55.814;37.460;2023-03-29T02:38:27;9.80;;;5.05;;
27213;SDS011;14723;55.814;37.460;2023-03-29T02:41:34;9.27;;;5.57;;
27213;SDS011;14723;55.814;37.460;2023-03-29T02:44:42;7.40;;;5.00;;
27213;SDS011;14723;55.814;37.460;2023-03-29T02:47:52;8.00;;;5.35;;
27213;SDS011;14723;55.814;37.460;2023-03-29T02:51:00;8.98;;;5.25;;
27213;SDS011;14723;55.814;37.460;2023-03-29T02:54:06;10.35;;;5.43;;
27213;SDS011;14723;55.814;37.460;2023-03-29T02:57:14;10.03;;;4.70;;
27213;SDS011;14723;55.814;37.460;2023-03-29T03:00:19;10.23;;;5.80;;
27213;SDS011;14723;55.814;37.460;2023-03-29T03:03:27;9.13;;;5.63;;
27213;SDS011;14723;55.814;37.460;2023-03-29T03:06:35;8.38;;;5.65;;
27213;SDS011;14723;55.814;37.460;2023-03-29T03:09:43;8.48;;;5.57;;
27213;SDS011;14723;55.814;37.460;2023-03-29T03:12:49;10.05;;;5.55;;
27213;SDS011;14723;55.814;37.460;2023-03-29T03:15:54;8.63;;;5.40;;
27213;SDS011;14723;55.814;37.460;2023-03-29T03:19:03;11.63;;;5.95;;
27213;SDS011;14723;55.814;37.460;2023-03-29T03:22:08;11.32;;;5.70;;
27213;SDS011;14723;55.814;37.460;2023-03-29T03:25:14;14.30;;;6.18;;
27213;SDS011;14723;55.814;37.460;2023-03-29T03:31:29;8.70;;;5.25;;
27213;SDS011;14723;55.814;37.460;2023-03-29T03:34:55;7.60;;;5.18;;
27213;SDS011;14723;55.814;37.460;2023-03-29T03:38:03;9.40;;;5.38;;
27213;SDS011;14723;55.814;37.460;2023-03-29T03:41:08;11.85;;;6.18;;
27213;SDS011;14723;55.814;37.460;2023-03-29T03:44:14;9.30;;;5.18;;
27213;SDS011;14723;55.814;37.460;2023-03-29T03:50:32;10.27;;;5.18;;
27213;SDS011;14723;55.814;37.460;2023-03-29T03:53:39;15.55;;;5.75;;
27213;SDS011;14723;55.814;37.460;2023-03-29T03:56:48;12.15;;;5.65;;
27213;SDS011;14723;55.814;37.460;2023-03-29T04:00:02;9.02;;;5.53;;
27213;SDS011;14723;55.814;37.460;2023-03-29T04:03:26;10.40;;;5.47;;
27213;SDS011;14723;55.814;37.460;2023-03-29T04:06:35;11.63;;;4.55;;
27213;SDS011;14723;55.814;37.460;2023-03-29T04:10:05;10.82;;;5.22;;
27213;SDS011;14723;55.814;37.460;2023-03-29T04:13:26;9.07;;;5.30;;
27213;SDS011;14723;55.814;37.460;2023-03-29T04:16:55;7.90;;;5.13;;
27213;SDS011;14723;55.814;37.460;2023-03-29T04:20:18;11.77;;;5.30;;
27213;SDS011;14723;55.814;37.460;2023-03-29T04:23:26;10.35;;;5.10;;
27213;SDS011;14723;55.814;37.460;2023-03-29T04:26:32;12.80;;;5.22;;
27213;SDS011;14723;55.814;37.460;2023-03-29T04:29:46;9.55;;;4.63;;
27213;SDS011;14723;55.814;37.460;2023-03-29T04:33:00;9.38;;;4.97;;
27213;SDS011;14723;55.814;37.460;2023-03-29T04:36:07;10.88;;;4.80;;
27213;SDS011;14723;55.814;37.460;2023-03-29T04:39:17;14.18;;;5.50;;
27213;SDS011;14723;55.814;37.460;2023-03-29T04:42:28;7.60;;;4.93;;
27213;SDS011;14723;55.814;37.460;2023-03-29T04:45:35;13.75;;;5.38;;
27213;SDS011;14723;55.814;37.460;2023-03-29T04:48:48;9.00;;;4.60;;
27213;SDS011;14723;55.814;37.460;2023-03-29T04:52:03;9.73;;;4.90;;
27213;SDS011;14723;55.814;37.460;2023-03-29T04:55:11;13.85;;;5.47;;
27213;SDS011;14723;55.814;37.460;2023-03-29T04:58:26;12.30;;;4.93;;
27213;SDS011;14723;55.814;37.460;2023-03-29T05:01:34;9.18;;;4.65;;
27213;SDS011;14723;55.814;37.460;2023-03-29T05:04:40;14.32;;;4.80;;
27213;SDS011;14723;55.814;37.460;2023-03-29T05:07:49;9.43;;;4.50;;
27213;SDS011;14723;55.814;37.460;2023-03-29T05:11:04;9.15;;;4.93;;
27213;SDS011;14723;55.814;37.460;2023-03-29T05:14:10;10.50;;;4.88;;
27213;SDS011;14723;55.814;37.460;2023-03-29T05:17:17;11.05;;;5.85;;
27213;SDS011;14723;55.814;37.460;2023-03-29T05:20:23;12.98;;;6.50;;
27213;SDS011;14723;55.814;37.460;2023-03-29T05:23:31;10.88;;;5.05;;
27213;SDS011;14723;55.814;37.460;2023-03-29T05:26:53;11.10;;;4.43;;
27213;SDS011;14723;55.814;37.460;2023-03-29T05:30:01;15.75;;;5.55;;
27213;SDS011;14723;55.814;37.460;2023-03-29T05:33:14;9.93;;;4.50;;
27213;SDS011;14723;55.814;37.460;2023-03-29T05:36:20;14.75;;;4.97;;
27213;SDS011;14723;55.814;37.460;2023-03-29T05:39:27;11.13;;;4.78;;
27213;SDS011;14723;55.814;37.460;2023-03-29T05:42:35;9.60;;;5.47;;
27213;SDS011;14723;55.814;37.460;2023-03-29T05:45:43;13.30;;;5.30;;
27213;SDS011;14723;55.814;37.460;2023-03-29T05:48:49;13.57;;;5.15;;
27213;SDS011;14723;55.814;37.460;2023-03-29T05:52:00;6.97;;;4.10;;
27213;SDS011;14723;55.814;37.460;2023-03-29T05:55:07;11.48;;;4.65;;
27213;SDS011;14723;55.814;37.460;2023-03-29T05:58:16;14.43;;;4.43;;
27213;SDS011;14723;55.814;37.460;2023-03-29T06:01:22;18.45;;;6.15;;
27213;SDS011;14723;55.814;37.460;2023-03-29T06:04:33;11.65;;;5.57;;
27213;SDS011;14723;55.814;37.460;2023-03-29T06:08:08;9.98;;;4.57;;
27213;SDS011;14723;55.814;37.460;2023-03-29T06:11:49;6.43;;;3.88;;
27213;SDS011;14723;55.814;37.460;2023-03-29T06:15:01;8.48;;;4.03;;
27213;SDS011;14723;55.814;37.460;2023-03-29T06:18:36;12.45;;;4.75;;
27213;SDS011;14723;55.814;37.460;2023-03-29T06:21:42;9.73;;;4.57;;
27213;SDS011;14723;55.814;37.460;2023-03-29T06:24:53;13.30;;;4.25;;
27213;SDS011;14723;55.814;37.460;2023-03-29T06:28:04;19.55;;;4.78;;
27213;SDS011;14723;55.814;37.460;2023-03-29T06:31:12;9.60;;;4.25;;
27213;SDS011;14723;55.814;37.460;2023-03-29T06:34:17;12.32;;;5.32;;
27213;SDS011;14723;55.814;37.460;2023-03-29T06:37:39;10.32;;;4.35;;
27213;SDS011;14723;55.814;37.460;2023-03-29T06:41:14;9.63;;;4.07;;
27213;SDS011;14723;55.814;37.460;2023-03-29T06:44:37;12.77;;;4.18;;
27213;SDS011;14723;55.814;37.460;2023-03-29T06:47:54;13.02;;;4.47;;
27213;SDS011;14723;55.814;37.460;2023-03-29T06:50:59;16.30;;;5.25;;
27213;SDS011;14723;55.814;37.460;2023-03-29T06:54:05;12.40;;;4.88;;
27213;SDS011;14723;55.814;37.460;2023-03-29T06:57:17;9.45;;;4.95;;
27213;SDS011;14723;55.814;37.460;2023-03-29T07:00:23;6.75;;;4.82;;
27213;SDS011;14723;55.814;37.460;2023-03-29T07:03:57;9.45;;;3.78;;
27213;SDS011;14723;55.814;37.460;2023-03-29T07:07:11;13.07;;;4.70;;
27213;SDS011;14723;55.814;37.460;2023-03-29T07:10:26;10.68;;;4.65;;
27213;SDS011;14723;55.814;37.460;2023-03-29T07:13:51;9.10;;;4.20;;
27213;SDS011;14723;55.814;37.460;2023-03-29T07:16:57;9.27;;;4.32;;
27213;SDS011;14723;55.814;37.460;2023-03-29T07:20:11;10.63;;;4.30;;
27213;SDS011;14723;55.814;37.460;2023-03-29T07:23:21;6.05;;;4.10;;
27213;SDS011;14723;55.814;37.460;2023-03-29T07:26:27;8.30;;;4.38;;
27213;SDS011;14723;55.814;37.460;2023-03-29T07:29:33;12.13;;;4.50;;
27213;SDS011;14723;55.814;37.460;2023-03-29T07:32:39;5.50;;;4.05;;
27213;SDS011;14723;55.814;37.460;2023-03-29T07:36:03;11.18;;;4.88;;
27213;SDS011;14723;55.814;37.460;2023-03-29T07:39:09;8.55;;;4.45;;
27213;SDS011;14723;55.814;37.460;2023-03-29T07:42:25;8.18;;;5.05;;
27213;SDS011;14723;55.814;37.460;2023-03-29T07:45:32;11.38;;;5.15;;
27213;SDS011;14723;55.814;37.460;2023-03-29T07:48:42;9.23;;;5.07;;
27213;SDS011;14723;55.814;37.460;2023-03-29T07:51:51;6.53;;;4.50;;
27213;SDS011;14723;55.814;37.460;2023-03-29T07:54:57;10.45;;;5.00;;
27213;SDS011;14723;55.814;37.460;2023-03-29T07:58:18;9.68;;;4.68;;
27213;SDS011;14723;55.814;37.460;2023-03-29T08:01:24;11.55;;;5.22;;
27213;SDS011;14723;55.814;37.460;2023-03-29T08:04:48;10.77;;;4.97;;
27213;SDS011;14723;55.814;37.460;2023-03-29T08:08:02;6.22;;;4.43;;
27213;SDS011;14723;55.814;37.460;2023-03-29T08:11:14;9.07;;;5.00;;
27213;SDS011;14723;55.814;37.460;2023-03-29T08:14:40;8.70;;;5.22;;
27213;SDS011;14723;55.814;37.460;2023-03-29T08:17:55;7.45;;;4.80;;
27213;SDS011;14723;55.814;37.460;2023-03-29T08:21:00;9.18;;;4.60;;
27213;SDS011;14723;55.814;37.460;2023-03-29T08:24:09;5.38;;;4.15;;
27213;SDS011;14723;55.814;37.460;2023-03-29T08:27:24;7.97;;;4.15;;
27213;SDS011;14723;55.814;37.460;2023-03-29T08:30:29;7.15;;;4.40;;
27213;SDS011;14723;55.814;37.460;2023-03-29T08:33:36;7.78;;;3.78;;
27213;SDS011;14723;55.814;37.460;2023-03-29T08:37:06;7.80;;;4.47;;
27213;SDS011;14723;55.814;37.460;2023-03-29T08:40:20;7.10;;;4.63;;
27213;SDS011;14723;55.814;37.460;2023-03-29T08:43:50;7.63;;;4.53;;
27213;SDS011;14723;55.814;37.460;2023-03-29T08:47:11;12.20;;;5.05;;
27213;SDS011;14723;55.814;37.460;2023-03-29T08:50:30;7.80;;;5.00;;
27213;SDS011;14723;55.814;37.460;2023-03-29T08:53:37;7.03;;;4.90;;
27213;SDS011;14723;55.814;37.460;2023-03-29T08:57:01;15.98;;;5.13;;
27213;SDS011;14723;55.814;37.460;2023-03-29T09:00:16;7.53;;;4.50;;
27213;SDS011;14723;55.814;37.460;2023-03-29T09:03:24;9.05;;;4.30;;
27213;SDS011;14723;55.814;37.460;2023-03-29T09:06:37;8.48;;;5.20;;
27213;SDS011;14723;55.814;37.460;2023-03-29T09:09:52;8.98;;;4.35;;
27213;SDS011;14723;55.814;37.460;2023-03-29T09:13:13;8.48;;;4.88;;
27213;SDS011;14723;55.814;37.460;2023-03-29T09:16:24;8.50;;;4.45;;
27213;SDS011;14723;55.814;37.460;2023-03-29T09:19:33;8.30;;;4.43;;
27213;SDS011;14723;55.814;37.460;2023-03-29T09:22:42;6.45;;;4.47;;
27213;SDS011;14723;55.814;37.460;2023-03-29T09:25:50;6.72;;;4.28;;
27213;SDS011;14723;55.814;37.460;2023-03-29T09:29:11;5.75;;;3.95;;
27213;SDS011;14723;55.814;37.460;2023-03-29T09:32:23;5.45;;;3.55;;
27213;SDS011;14723;55.814;37.460;2023-03-29T09:35:36;7.22;;;4.00;;
27213;SDS011;14723;55.814;37.460;2023-03-29T09:38:43;4.97;;;3.47;;
27213;SDS011;14723;55.814;37.460;2023-03-29T09:41:54;6.82;;;3.60;;
27213;SDS011;14723;55.814;37.460;2023-03-29T09:45:05;6.75;;;4.07;;
27213;SDS011;14723;55.814;37.460;2023-03-29T09:48:18;6.60;;;3.97;;
27213;SDS011;14723;55.814;37.460;2023-03-29T09:51:29;7.55;;;4.22;;
27213;SDS011;14723;55.814;37.460;2023-03-29T09:54:37;7.60;;;4.10;;
27213;SDS011;14723;55.814;37.460;2023-03-29T09:58:10;7.20;;;4.47;;
27213;SDS011;14723;55.814;37.460;2023-03-29T10:01:22;6.55;;;4.18;;
27213;SDS011;14723;55.814;37.460;2023-03-29T10:04:28;6.22;;;4.68;;
27213;SDS011;14723;55.814;37.460;2023-03-29T10:07:38;6.05;;;3.67;;
27213;SDS011;14723;55.814;37.460;2023-03-29T10:10:47;7.05;;;5.03;;
27213;SDS011;14723;55.814;37.460;2023-03-29T10:13:53;7.07;;;4.05;;
27213;SDS011;14723;55.814;37.460;2023-03-29T10:17:03;5.70;;;4.00;;
27213;SDS011;14723;55.814;37.460;2023-03-29T10:20:12;10.27;;;4.55;;
27213;SDS011;14723;55.814;37.460;2023-03-29T10:23:18;5.95;;;4.40;;
27213;SDS011;14723;55.814;37.460;2023-03-29T10:26:24;11.23;;;4.70;;
27213;SDS011;14723;55.814;37.460;2023-03-29T10:29:34;7.78;;;6.00;;
27213;SDS011;14723;55.814;37.460;2023-03-29T10:32:43;8.55;;;4.63;;
27213;SDS011;14723;55.814;37.460;2023-03-29T10:35:49;7.70;;;4.63;;
27213;SDS011;14723;55.814;37.460;2023-03-29T10:38:55;9.13;;;4.50;;
27213;SDS011;14723;55.814;37.460;2023-03-29T10:45:17;8.68;;;4.43;;
27213;SDS011;14723;55.814;37.460;2023-03-29T10:48:27;7.32;;;4.93;;
27213;SDS011;14723;55.814;37.460;2023-03-29T10:54:37;6.72;;;3.95;;
27213;SDS011;14723;55.814;37.460;2023-03-29T10:57:45;10.18;;;5.93;;
27213;SDS011;14723;55.814;37.460;2023-03-29T11:00:52;6.60;;;4.82;;
27213;SDS011;14723;55.814;37.460;2023-03-29T11:04:05;10.73;;;4.95;;
27213;SDS011;14723;55.814;37.460;2023-03-29T11:07:18;5.63;;;4.63;;
27213;SDS011;14723;55.814;37.460;2023-03-29T11:10:29;8.02;;;5.05;;
27213;SDS011;14723;55.814;37.460;2023-03-29T11:13:39;7.22;;;4.95;;
27213;SDS011;14723;55.814;37.460;2023-03-29T11:16:50;8.88;;;5.88;;
27213;SDS011;14723;55.814;37.460;2023-03-29T11:20:02;9.52;;;5.43;;
27213;SDS011;14723;55.814;37.460;2023-03-29T11:23:16;10.45;;;5.40;;
27213;SDS011;14723;55.814;37.460;2023-03-29T11:26:24;9.30;;;5.47;;
27213;SDS011;14723;55.814;37.460;2023-03-29T11:29:34;12.07;;;5.60;;
27213;SDS011;14723;55.814;37.460;2023-03-29T11:32:46;8.57;;;5.30;;
27213;SDS011;14723;55.814;37.460;2023-03-29T11:36:00;10.40;;;6.43;;
27213;SDS011;14723;55.814;37.460;2023-03-29T11:39:09;10.88;;;6.10;;
27213;SDS011;14723;55.814;37.460;2023-03-29T11:42:19;8.85;;;5.30;;
27213;SDS011;14723;55.814;37.460;2023-03-29T11:45:26;7.80;;;4.90;;
27213;SDS011;14723;55.814;37.460;2023-03-29T11:51:41;8.85;;;4.93;;
27213;SDS011;14723;55.814;37.460;2023-03-29T11:54:50;9.43;;;5.20;;
27213;SDS011;14723;55.814;37.460;2023-03-29T11:57:57;9.70;;;5.97;;
27213;SDS011;14723;55.814;37.460;2023-03-29T12:01:04;8.68;;;5.53;;
27213;SDS011;14723;55.814;37.460;2023-03-29T12:04:11;8.57;;;5.53;;
27213;SDS011;14723;55.814;37.460;2023-03-29T12:07:28;7.80;;;5.47;;
27213;SDS011;14723;55.814;37.460;2023-03-29T12:10:34;8.32;;;5.40;;
27213;SDS011;14723;55.814;37.460;2023-03-29T12:13:41;6.22;;;4.85;;
27213;SDS011;14723;55.814;37.460;2023-03-29T12:16:48;9.85;;;5.03;;
27213;SDS011;14723;55.814;37.460;2023-03-29T12:19:59;9.20;;;5.63;;
27213;SDS011;14723;55.814;37.460;2023-03-29T12:23:10;9.35;;;4.93;;
27213;SDS011;14723;55.814;37.460;2023-03-29T12:26:21;9.25;;;5.40;;
27213;SDS011;14723;55.814;37.460;2023-03-29T12:29:33;23.77;;;4.88;;
27213;SDS011;14723;55.814;37.460;2023-03-29T12:32:43;7.45;;;4.47;;
27213;SDS011;14723;55.814;37.460;2023-03-29T12:36:29;6.63;;;4.75;;
27213;SDS011;14723;55.814;37.460;2023-03-29T12:40:12;8.45;;;5.65;;
27213;SDS011;14723;55.814;37.460;2023-03-29T12:43:37;11.88;;;4.90;;
27213;SDS011;14723;55.814;37.460;2023-03-29T12:47:23;7.78;;;4.68;;
27213;SDS011;14723;55.814;37.460;2023-03-29T12:50:32;10.23;;;4.90;;
27213;SDS011;14723;55.814;37.460;2023-03-29T12:53:38;7.07;;;4.50;;
27213;SDS011;14723;55.814;37.460;2023-03-29T12:56:55;10.07;;;3.97;;
27213;SDS011;14723;55.814;37.460;2023-03-29T13:00:08;8.30;;;4.63;;
27213;SDS011;14723;55.814;37.460;2023-03-29T13:03:19;7.88;;;4.13;;
27213;SDS011;14723;55.814;37.460;2023-03-29T13:06:26;5.65;;;3.72;;
27213;SDS011;14723;55.814;37.460;2023-03-29T13:09:33;3.90;;;3.42;;
27213;SDS011;14723;55.814;37.460;2023-03-29T13:12:43;5.38;;;3.67;;
27213;SDS011;14723;55.814;37.460;2023-03-29T13:15:50;5.93;;;3.95;;
27213;SDS011;14723;55.814;37.460;2023-03-29T13:18:58;7.78;;;3.95;;
27213;SDS011;14723;55.814;37.460;2023-03-29T13:22:12;6.78;;;3.50;;
27213;SDS011;14723;55.814;37.460;2023-03-29T13:25:30;4.90;;;3.60;;
27213;SDS011;14723;55.814;37.460;2023-03-29T13:28:44;6.53;;;3.10;;
27213;SDS011;14723;55.814;37.460;2023-03-29T13:32:00;5.97;;;2.90;;
27213;SDS011;14723;55.814;37.460;2023-03-29T13:35:11;5.40;;;3.50;;
27213;SDS011;14723;55.814;37.460;2023-03-29T13:38:20;7.00;;;3.50;;
27213;SDS011;14723;55.814;37.460;2023-03-29T13:41:31;7.35;;;4.20;;
27213;SDS011;14723;55.814;37.460;2023-03-29T13:44:41;4.45;;;3.00;;
27213;SDS011;14723;55.814;37.460;2023-03-29T13:47:59;6.22;;;3.38;;
27213;SDS011;14723;55.814;37.460;2023-03-29T13:51:18;5.70;;;3.20;;
27213;SDS011;14723;55.814;37.460;2023-03-29T13:54:25;6.85;;;3.50;;
27213;SDS011;14723;55.814;37.460;2023-03-29T13:57:31;5.70;;;3.58;;
27213;SDS011;14723;55.814;37.460;2023-03-29T14:00:43;6.00;;;3.40;;
27213;SDS011;14723;55.814;37.460;2023-03-29T14:03:49;7.60;;;3.90;;
27213;SDS011;14723;55.814;37.460;2023-03-29T14:06:55;5.15;;;3.60;;
27213;SDS011;14723;55.814;37.460;2023-03-29T14:10:01;6.85;;;4.13;;
27213;SDS011;14723;55.814;37.460;2023-03-29T14:13:09;5.78;;;3.72;;
27213;SDS011;14723;55.814;37.460;2023-03-29T14:16:17;6.93;;;4.05;;
27213;SDS011;14723;55.814;37.460;2023-03-29T14:19:27;7.55;;;4.40;;
27213;SDS011;14723;55.814;37.460;2023-03-29T14:22:33;7.55;;;4.05;;
27213;SDS011;14723;55.814;37.460;2023-03-29T14:25:38;7.35;;;4.43;;
27213;SDS011;14723;55.814;37.460;2023-03-29T14:28:45;6.85;;;4.28;;
27213;SDS011;14723;55.814;37.460;2023-03-29T14:31:53;7.30;;;4.50;;
27213;SDS011;14723;55.814;37.460;2023-03-29T14:34:59;7.43;;;4.15;;
27213;SDS011;14723;55.814;37.460;2023-03-29T14:38:05;8.80;;;4.95;;
27213;SDS011;14723;55.814;37.460;2023-03-29T14:41:11;7.53;;;4.40;;
27213;SDS011;14723;55.814;37.460;2023-03-29T14:44:16;7.72;;;4.15;;
27213;SDS011;14723;55.814;37.460;2023-03-29T14:47:26;8.45;;;4.43;;
27213;SDS011;14723;55.814;37.460;2023-03-29T14:50:32;5.97;;;4.43;;
27213;SDS011;14723;55.814;37.460;2023-03-29T14:53:38;6.50;;;4.22;;
27213;SDS011;14723;55.814;37.460;2023-03-29T14:56:44;7.43;;;4.78;;
27213;SDS011;14723;55.814;37.460;2023-03-29T14:59:51;8.10;;;5.00;;
27213;SDS011;14723;55.814;37.460;2023-03-29T15:03:01;7.90;;;4.78;;
27213;SDS011;14723;55.814;37.460;2023-03-29T15:06:30;7.45;;;4.53;;
27213;SDS011;14723;55.814;37.460;2023-03-29T15:09:37;10.50;;;4.70;;
27213;SDS011;14723;55.814;37.460;2023-03-29T15:12:43;7.63;;;4.70;;
27213;SDS011;14723;55.814;37.460;2023-03-29T15:15:49;8.43;;;4.90;;
27213;SDS011;14723;55.814;37.460;2023-03-29T15:18:59;7.13;;;4.45;;
27213;SDS011;14723;55.814;37.460;2023-03-29T15:22:05;7.97;;;4.15;;
27213;SDS011;14723;55.814;37.460;2023-03-29T15:25:14;10.88;;;7.18;;
27213;SDS011;14723;55.814;37.460;2023-03-29T15:28:24;9.90;;;5.32;;
27213;SDS011;14723;55.814;37.460;2023-03-29T15:31:32;6.32;;;4.07;;
27213;SDS011;14723;55.814;37.460;2023-03-29T15:34:42;7.05;;;5.22;;
27213;SDS011;14723;55.814;37.460;2023-03-29T15:37:47;8.65;;;5.45;;
27213;SDS011;14723;55.814;37.460;2023-03-29T15:40:53;6.75;;;4.68;;
27213;SDS011;14723;55.814;37.460;2023-03-29T15:43:59;8.57;;;5.65;;
27213;SDS011;14723;55.814;37.460;2023-03-29T15:47:07;8.82;;;5.75;;
27213;SDS011;14723;55.814;37.460;2023-03-29T15:50:15;11.77;;;7.18;;
27213;SDS011;14723;55.814;37.460;2023-03-29T15:53:21;7.47;;;5.80;;
27213;SDS011;14723;55.814;37.460;2023-03-29T15:56:27;9.68;;;6.60;;
27213;SDS011;14723;55.814;37.460;2023-03-29T15:59:33;10.52;;;6.82;;
27213;SDS011;14723;55.814;37.460;2023-03-29T16:02:38;7.25;;;5.60;;
27213;SDS011;14723;55.814;37.460;2023-03-29T16:05:47;9.85;;;5.63;;
27213;SDS011;14723;55.814;37.460;2023-03-29T16:08:55;9.88;;;6.18;;
27213;SDS011;14723;55.814;37.460;2023-03-29T16:12:01;11.40;;;7.03;;
27213;SDS011;14723;55.814;37.460;2023-03-29T16:15:11;8.90;;;6.78;;
27213;SDS011;14723;55.814;37.460;2023-03-29T16:18:18;8.85;;;6.80;;
27213;SDS011;14723;55.814;37.460;2023-03-29T16:21:26;11.77;;;7.60;;
27213;SDS011;14723;55.814;37.460;2023-03-29T16:24:32;9.15;;;6.25;;
27213;SDS011;14723;55.814;37.460;2023-03-29T16:27:37;10.38;;;7.03;;
27213;SDS011;14723;55.814;37.460;2023-03-29T16:30:42;12.10;;;6.80;;
27213;SDS011;14723;55.814;37.460;2023-03-29T16:33:48;16.60;;;8.35;;
27213;SDS011;14723;55.814;37.460;2023-03-29T16:36:57;11.88;;;7.47;;
27213;SDS011;14723;55.814;37.460;2023-03-29T16:40:02;10.40;;;8.00;;
27213;SDS011;14723;55.814;37.460;2023-03-29T16:43:11;12.77;;;8.05;;
27213;SDS011;14723;55.814;37.460;2023-03-29T16:46:18;11.35;;;8.13;;
27213;SDS011;14723;55.814;37.460;2023-03-29T16:49:23;12.80;;;8.63;;
27213;SDS011;14723;55.814;37.460;2023-03-29T16:52:32;11.25;;;8.35;;
27213;SDS011;14723;55.814;37.460;2023-03-29T16:55:38;13.85;;;10.98;;
27213;SDS011;14723;55.814;37.460;2023-03-29T16:58:44;13.68;;;9.60;;
27213;SDS011;14723;55.814;37.460;2023-03-29T17:01:49;12.90;;;8.93;;
27213;SDS011;14723;55.814;37.460;2023-03-29T17:04:55;13.80;;;9.82;;
27213;SDS011;14723;55.814;37.460;2023-03-29T17:08:03;13.82;;;9.45;;
27213;SDS011;14723;55.814;37.460;2023-03-29T17:11:08;13.13;;;9.75;;
27213;SDS011;14723;55.814;37.460;2023-03-29T17:14:14;14.32;;;9.10;;
27213;SDS011;14723;55.814;37.460;2023-03-29T17:17:20;14.50;;;9.55;;
27213;SDS011;14723;55.814;37.460;2023-03-29T17:20:25;14.25;;;9.60;;
27213;SDS011;14723;55.814;37.460;2023-03-29T17:23:33;15.55;;;9.73;;
27213;SDS011;14723;55.814;37.460;2023-03-29T17:26:38;16.05;;;10.05;;
27213;SDS011;14723;55.814;37.460;2023-03-29T17:29:46;11.88;;;9.18;;
27213;SDS011;14723;55.814;37.460;2023-03-29T17:32:55;17.20;;;10.35;;
27213;SDS011;14723;55.814;37.460;2023-03-29T17:36:01;16.17;;;10.25;;
27213;SDS011;14723;55.814;37.460;2023-03-29T17:39:10;15.35;;;10.00;;
27213;SDS011;14723;55.814;37.460;2023-03-29T17:42:16;12.88;;;9.23;;
27213;SDS011;14723;55.814;37.460;2023-03-29T17:45:22;12.88;;;8.73;;
27213;SDS011;14723;55.814;37.460;2023-03-29T17:48:28;15.98;;;8.70;;
27213;SDS011;14723;55.814;37.460;2023-03-29T17:51:34;13.13;;;8.25;;
27213;SDS011;14723;55.814;37.460;2023-03-29T17:54:42;14.57;;;8.93;;
27213;SDS011;14723;55.814;37.460;2023-03-29T17:57:47;13.63;;;8.97;;
27213;SDS011;14723;55.814;37.460;2023-03-29T18:00:53;13.68;;;8.15;;
27213;SDS011;14723;55.814;37.460;2023-03-29T18:03:58;17.80;;;10.02;;
27213;SDS011;14723;55.814;37.460;2023-03-29T18:07:04;15.68;;;9.52;;
27213;SDS011;14723;55.814;37.460;2023-03-29T18:10:12;13.10;;;8.95;;
27213;SDS011;14723;55.814;37.460;2023-03-29T18:13:17;13.70;;;9.32;;
27213;SDS011;14723;55.814;37.460;2023-03-29T18:16:26;13.55;;;8.90;;
27213;SDS011;14723;55.814;37.460;2023-03-29T18:19:32;12.57;;;8.55;;
27213;SDS011;14723;55.814;37.460;2023-03-29T18:22:37;15.55;;;10.75;;
27213;SDS011;14723;55.814;37.460;2023-03-29T18:25:46;17.90;;;10.18;;
27213;SDS011;14723;55.814;37.460;2023-03-29T18:28:51;15.15;;;10.05;;
27213;SDS011;14723;55.814;37.460;2023-03-29T18:31:57;15.75;;;10.02;;
27213;SDS011;14723;55.814;37.460;2023-03-29T18:35:04;16.27;;;9.80;;
27213;SDS011;14723;55.814;37.460;2023-03-29T18:38:10;15.45;;;9.13;;
27213;SDS011;14723;55.814;37.460;2023-03-29T18:44:38;17.25;;;9.65;;
27213;SDS011;14723;55.814;37.460;2023-03-29T18:47:44;16.05;;;9.80;;
27213;SDS011;14723;55.814;37.460;2023-03-29T18:50:51;13.45;;;9.60;;
27213;SDS011;14723;55.814;37.460;2023-03-29T18:53:59;17.17;;;10.60;;
27213;SDS011;14723;55.814;37.460;2023-03-29T18:57:05;18.48;;;10.63;;
27213;SDS011;14723;55.814;37.460;2023-03-29T19:00:14;16.92;;;11.02;;
27213;SDS011;14723;55.814;37.460;2023-03-29T19:03:20;18.67;;;10.27;;